createdAt,value
2023-05-25T00:00:15.063Z,5.65
2023-05-25T00:01:17.163Z,6.92
2023-05-25T00:02:19.289Z,7.61
2023-05-25T00:03:21.373Z,7.73
2023-05-25T00:04:23.531Z,6.49
2023-05-25T00:05:26.196Z,6.67
2023-05-25T00:06:29.204Z,7.12
2023-05-25T00:07:31.483Z,7.63
2023-05-25T00:08:33.412Z,7.25
2023-05-25T00:09:35.348Z,7.32
2023-05-25T00:10:38.403Z,8.75
2023-05-25T00:11:40.373Z,8.63
2023-05-25T00:12:42.471Z,8.90
2023-05-25T00:13:44.460Z,7.83
2023-05-25T00:14:46.554Z,10.05
2023-05-25T00:15:49.211Z,7.99
2023-05-25T00:16:51.363Z,8.08
2023-05-25T00:17:53.352Z,8.29
2023-05-25T00:18:55.430Z,8.57
2023-05-25T00:19:59.211Z,7.37
2023-05-25T00:21:01.366Z,7.61
2023-05-25T00:22:03.562Z,6.62
2023-05-25T00:23:05.541Z,6.62
2023-05-25T00:24:08.395Z,6.99
2023-05-25T00:25:10.501Z,10.46
2023-05-25T00:26:13.035Z,7.68
2023-05-25T00:27:14.926Z,6.91
2023-05-25T00:28:17.952Z,7.89
2023-05-25T00:29:19.967Z,7.71
2023-05-25T00:30:22.182Z,7.85
2023-05-25T00:31:24.257Z,7.29
2023-05-25T00:32:26.250Z,8.24
2023-05-25T00:33:28.392Z,8.87
2023-05-25T00:34:30.418Z,8.08
2023-05-25T00:35:32.467Z,10.09
2023-05-25T00:36:34.657Z,10.35
2023-05-25T00:37:36.651Z,8.56
2023-05-25T00:38:38.560Z,8.09
2023-05-25T00:39:40.667Z,6.99
2023-05-25T00:40:44.023Z,8.97
2023-05-25T00:41:48.369Z,7.91
2023-05-25T00:42:51.723Z,7.40
2023-05-25T00:43:53.817Z,7.56
2023-05-25T00:44:55.689Z,10.75
2023-05-25T00:45:57.691Z,8.56
2023-05-25T00:47:00.418Z,8.82
2023-05-25T00:48:03.871Z,9.09
2023-05-25T00:49:06.107Z,7.61
2023-05-25T00:50:09.810Z,7.61
2023-05-25T00:51:14.945Z,6.89
2023-05-25T00:52:17.085Z,6.66
2023-05-25T00:53:18.957Z,7.44
2023-05-25T00:54:20.894Z,7.08
2023-05-25T00:55:24.706Z,6.85
2023-05-25T00:56:30.394Z,6.99
2023-05-25T00:57:34.767Z,7.67
2023-05-25T00:58:39.840Z,6.14
2023-05-25T00:59:45.643Z,8.04
2023-05-25T01:00:50.264Z,7.23
2023-05-25T01:01:54.762Z,9.25
2023-05-25T01:02:58.829Z,6.70
2023-05-25T01:04:02.931Z,7.32
2023-05-25T01:05:08.196Z,9.60
2023-05-25T01:06:14.512Z,7.61
2023-05-25T01:07:23.905Z,6.33
2023-05-25T01:08:27.364Z,7.67
2023-05-25T01:09:32.040Z,8.85
2023-05-25T01:10:36.700Z,7.95
2023-05-25T01:11:42.152Z,6.99
2023-05-25T01:12:45.908Z,8.19
2023-05-25T01:13:50.396Z,7.83
2023-05-25T01:14:54.539Z,7.91
2023-05-25T01:15:57.401Z,9.71
2023-05-25T01:17:00.058Z,7.42
2023-05-25T01:18:02.141Z,8.30
2023-05-25T01:19:04.109Z,7.98
2023-05-25T01:20:11.317Z,6.64
2023-05-25T01:22:31.438Z,6.85
2023-05-25T01:23:36.378Z,9.02
2023-05-25T01:24:42.060Z,7.13
2023-05-25T01:25:47.812Z,8.28
2023-05-25T01:26:56.451Z,7.54
2023-05-25T01:28:02.128Z,7.32
2023-05-25T01:29:05.751Z,7.78
2023-05-25T01:30:11.881Z,7.92
2023-05-25T01:31:14.333Z,7.98
2023-05-25T01:32:17.984Z,9.16
2023-05-25T01:33:20.632Z,11.03
2023-05-25T01:34:24.253Z,9.56
2023-05-25T01:35:27.489Z,9.11
2023-05-25T01:36:29.616Z,6.11
2023-05-25T01:37:31.757Z,7.79
2023-05-25T01:38:34.702Z,8.21
2023-05-25T01:39:36.599Z,7.26
2023-05-25T01:40:38.738Z,7.52
2023-05-25T01:41:40.714Z,8.26
2023-05-25T01:42:43.041Z,7.24
2023-05-25T01:43:45.350Z,7.93
2023-05-25T01:44:47.910Z,7.25
2023-05-25T01:45:53.742Z,8.13
2023-05-25T01:47:11.753Z,6.60
2023-05-25T01:48:20.328Z,8.86
2023-05-25T01:49:38.123Z,8.63
2023-05-25T01:50:49.684Z,9.48
2023-05-25T01:52:19.812Z,6.61
2023-05-25T01:53:24.830Z,11.17
2023-05-25T01:54:30.539Z,9.04
2023-05-25T01:55:36.138Z,8.37
2023-05-25T01:56:39.535Z,7.04
2023-05-25T01:57:44.811Z,8.24
2023-05-25T01:58:49.905Z,7.37
2023-05-25T01:59:54.565Z,7.31
2023-05-25T02:00:58.312Z,6.79
2023-05-25T02:02:02.677Z,7.65
2023-05-25T02:03:04.969Z,8.19
2023-05-25T02:04:08.198Z,10.37
2023-05-25T02:05:11.220Z,7.17
2023-05-25T02:06:14.903Z,8.28
2023-05-25T02:07:16.943Z,7.45
2023-05-25T02:08:18.865Z,8.42
2023-05-25T02:09:20.973Z,7.61
2023-05-25T02:10:22.985Z,6.73
2023-05-25T02:11:24.935Z,6.91
2023-05-25T02:12:27.137Z,6.22
2023-05-25T02:13:29.274Z,7.83
2023-05-25T02:14:31.321Z,5.79
2023-05-25T02:15:34.342Z,7.35
2023-05-25T02:16:36.502Z,6.00
2023-05-25T02:17:38.540Z,8.01
2023-05-25T02:18:40.550Z,10.61
2023-05-25T02:19:43.107Z,10.41
2023-05-25T02:20:45.257Z,12.94
2023-05-25T02:21:47.182Z,6.52
2023-05-25T02:22:49.066Z,7.25
2023-05-25T02:23:52.203Z,8.28
2023-05-25T02:24:54.122Z,8.96
2023-05-25T02:25:56.117Z,7.37
2023-05-25T02:26:58.138Z,7.18
2023-05-25T02:28:00.176Z,7.38
2023-05-25T02:29:03.520Z,6.30
2023-05-25T02:30:07.180Z,6.64
2023-05-25T02:31:09.299Z,8.66
2023-05-25T02:32:11.750Z,7.15
2023-05-25T02:33:13.708Z,6.93
2023-05-25T02:34:15.763Z,7.01
2023-05-25T02:35:17.671Z,6.81
2023-05-25T02:36:20.398Z,8.04
2023-05-25T02:37:22.404Z,7.51
2023-05-25T02:38:24.950Z,8.37
2023-05-25T02:39:26.851Z,7.82
2023-05-25T02:40:28.862Z,8.91
2023-05-25T02:41:30.944Z,7.97
2023-05-25T02:42:34.905Z,8.83
2023-05-25T02:43:36.937Z,11.31
2023-05-25T02:44:39.004Z,8.39
2023-05-25T02:45:40.942Z,7.37
2023-05-25T02:46:43.251Z,10.17
2023-05-25T02:47:45.366Z,7.75
2023-05-25T02:48:47.444Z,8.52
2023-05-25T02:49:49.448Z,7.50
2023-05-25T02:50:51.654Z,7.44
2023-05-25T02:51:53.719Z,7.99
2023-05-25T02:52:55.887Z,8.67
2023-05-25T02:53:57.920Z,7.71
2023-05-25T02:55:00.249Z,8.65
2023-05-25T02:56:03.226Z,8.80
2023-05-25T02:57:05.981Z,8.59
2023-05-25T02:58:08.591Z,7.81
2023-05-25T02:59:10.496Z,9.13
2023-05-25T03:00:14.555Z,9.28
2023-05-25T03:01:16.668Z,8.69
2023-05-25T03:02:18.773Z,7.21
2023-05-25T03:03:20.829Z,9.02
2023-05-25T03:04:22.861Z,8.01
2023-05-25T03:05:24.758Z,7.29
2023-05-25T03:06:27.062Z,7.85
2023-05-25T03:07:29.067Z,9.75
2023-05-25T03:08:30.970Z,9.78
2023-05-25T03:09:32.999Z,10.26
2023-05-25T03:10:35.110Z,11.87
2023-05-25T03:11:37.085Z,8.47
2023-05-25T03:12:38.984Z,9.01
2023-05-25T03:13:41.012Z,8.34
2023-05-25T03:14:43.065Z,9.08
2023-05-25T03:15:45.194Z,13.00
2023-05-25T03:16:47.696Z,9.29
2023-05-25T03:17:49.854Z,10.26
2023-05-25T03:18:52.027Z,10.39
2023-05-25T03:19:54.092Z,10.07
2023-05-25T03:20:56.360Z,8.22
2023-05-25T03:21:58.391Z,8.01
2023-05-25T03:23:01.792Z,9.03
2023-05-25T03:24:04.359Z,8.91
2023-05-25T03:25:07.457Z,8.42
2023-05-25T03:26:09.792Z,9.89
2023-05-25T03:27:12.171Z,9.18
2023-05-25T03:28:14.308Z,7.89
2023-05-25T03:29:16.361Z,9.89
2023-05-25T03:30:18.499Z,8.79
2023-05-25T03:31:20.676Z,9.26
2023-05-25T03:32:22.881Z,7.40
2023-05-25T03:33:26.045Z,8.15
2023-05-25T03:34:30.266Z,10.31
2023-05-25T03:35:32.539Z,8.51
2023-05-25T03:36:34.843Z,9.32
2023-05-25T03:37:37.328Z,8.01
2023-05-25T03:38:42.398Z,8.73
2023-05-25T03:39:44.491Z,8.14
2023-05-25T03:40:46.757Z,10.49
2023-05-25T03:41:48.899Z,9.00
2023-05-25T03:42:51.067Z,12.39
2023-05-25T03:43:53.154Z,14.51
2023-05-25T03:44:55.619Z,12.75
2023-05-25T03:45:58.737Z,14.72
2023-05-25T03:47:01.332Z,14.62
2023-05-25T03:48:04.171Z,14.15
2023-05-25T03:49:06.568Z,23.31
2023-05-25T03:50:10.493Z,43.61
2023-05-25T03:51:12.539Z,14.76
2023-05-25T03:52:14.778Z,12.90
2023-05-25T03:53:17.317Z,11.10
2023-05-25T03:54:19.370Z,9.11
2023-05-25T03:55:21.559Z,9.22
2023-05-25T03:56:23.689Z,12.11
2023-05-25T03:57:25.888Z,10.06
2023-05-25T03:58:28.182Z,9.53
2023-05-25T03:59:31.117Z,11.02
2023-05-25T04:00:33.356Z,8.46
2023-05-25T04:01:35.658Z,9.90
2023-05-25T04:02:37.871Z,10.10
2023-05-25T04:03:40.298Z,9.25
2023-05-25T04:04:42.525Z,9.53
2023-05-25T04:05:45.051Z,9.63
2023-05-25T04:06:47.462Z,8.93
2023-05-25T04:07:49.523Z,9.71
2023-05-25T04:08:52.340Z,9.79
2023-05-25T04:09:54.446Z,8.49
2023-05-25T04:10:56.626Z,8.51
2023-05-25T04:11:58.672Z,9.29
2023-05-25T04:13:00.747Z,15.17
2023-05-25T04:14:02.896Z,9.04
2023-05-25T04:15:06.919Z,9.67
2023-05-25T04:16:09.756Z,9.30
2023-05-25T04:17:12.004Z,7.05
2023-05-25T04:18:14.278Z,7.29
2023-05-25T04:19:16.274Z,8.16
2023-05-25T04:20:18.577Z,8.34
2023-05-25T04:21:21.052Z,10.59
2023-05-25T04:22:23.131Z,8.19
2023-05-25T04:23:25.257Z,10.01
2023-05-25T04:24:28.365Z,10.66
2023-05-25T04:25:30.479Z,7.93
2023-05-25T04:26:33.144Z,8.12
2023-05-25T04:27:35.920Z,10.47
2023-05-25T04:28:38.670Z,8.70
2023-05-25T04:29:40.980Z,7.59
2023-05-25T04:30:43.111Z,8.67
2023-05-25T04:31:45.165Z,10.83
2023-05-25T04:32:47.246Z,10.19
2023-05-25T04:33:49.359Z,11.89
2023-05-25T04:34:51.440Z,14.45
2023-05-25T04:35:53.335Z,8.85
2023-05-25T04:36:55.430Z,9.94
2023-05-25T04:37:57.344Z,16.65
2023-05-25T04:38:59.427Z,7.83
2023-05-25T04:40:01.343Z,8.22
2023-05-25T04:41:03.335Z,11.48
2023-05-25T04:42:05.957Z,9.52
2023-05-25T04:43:08.036Z,9.77
2023-05-25T04:44:10.699Z,9.72
2023-05-25T04:45:13.470Z,8.83
2023-05-25T04:46:15.979Z,7.19
2023-05-25T04:47:18.745Z,9.79
2023-05-25T04:48:20.978Z,11.67
2023-05-25T04:49:23.342Z,11.07
2023-05-25T04:50:25.409Z,7.74
2023-05-25T04:51:27.336Z,8.42
2023-05-25T04:52:30.549Z,11.46
2023-05-25T04:53:32.996Z,8.96
2023-05-25T04:54:34.929Z,9.83
2023-05-25T04:55:38.958Z,9.97
2023-05-25T04:56:41.126Z,9.00
2023-05-25T04:57:43.181Z,8.29
2023-05-25T04:58:45.100Z,8.65
2023-05-25T04:59:47.284Z,12.11
2023-05-25T05:00:51.226Z,10.00
2023-05-25T05:01:53.320Z,13.41
2023-05-25T05:02:56.268Z,12.73
2023-05-25T05:03:58.497Z,7.79
2023-05-25T05:05:01.263Z,9.52
2023-05-25T05:06:03.767Z,8.55
2023-05-25T05:07:05.779Z,14.98
2023-05-25T05:08:07.670Z,13.48
2023-05-25T05:09:09.719Z,8.61
2023-05-25T05:10:12.580Z,10.17
2023-05-25T05:11:14.670Z,11.00
2023-05-25T05:12:16.599Z,9.53
2023-05-25T05:13:18.681Z,8.45
2023-05-25T05:14:20.595Z,8.49
2023-05-25T05:15:22.755Z,10.02
2023-05-25T05:16:25.652Z,14.12
2023-05-25T05:17:27.657Z,34.01
2023-05-25T05:18:30.674Z,24.03
2023-05-25T05:19:32.696Z,18.21
2023-05-25T05:20:35.021Z,20.42
2023-05-25T05:21:37.096Z,22.13
2023-05-25T05:22:39.169Z,16.71
2023-05-25T05:23:44.650Z,11.03
2023-05-25T05:24:47.145Z,35.46
2023-05-25T05:25:49.071Z,17.07
2023-05-25T05:26:58.072Z,12.29
2023-05-25T05:27:54.995Z,4.51
2023-05-25T05:28:57.039Z,3.70
2023-05-25T05:29:59.057Z,7.07
2023-05-25T05:31:01.414Z,4.35
2023-05-25T05:32:03.583Z,5.03
2023-05-25T05:33:05.554Z,6.40
2023-05-25T05:34:07.698Z,5.43
2023-05-25T05:35:09.894Z,2.93
2023-05-25T05:36:12.745Z,5.80
2023-05-25T05:37:14.874Z,3.68
2023-05-25T05:38:18.349Z,3.19
2023-05-25T05:39:20.348Z,3.25
2023-05-25T05:40:22.374Z,3.52
2023-05-25T05:41:24.377Z,6.70
2023-05-25T05:42:26.418Z,5.53
2023-05-25T05:43:28.386Z,3.85
2023-05-25T05:44:30.405Z,7.69
2023-05-25T05:45:32.426Z,4.79
2023-05-25T05:46:34.571Z,14.61
2023-05-25T05:47:36.629Z,7.68
2023-05-25T05:48:38.995Z,9.88
2023-05-25T05:49:40.985Z,10.32
2023-05-25T05:50:43.002Z,4.55
2023-05-25T05:51:44.898Z,4.59
2023-05-25T05:52:46.799Z,3.79
2023-05-25T05:53:48.682Z,3.71
2023-05-25T05:54:50.726Z,5.81
2023-05-25T05:55:55.856Z,4.12
2023-05-25T05:56:56.831Z,3.79
2023-05-25T05:57:58.989Z,4.21
2023-05-25T05:59:00.890Z,3.45
2023-05-25T06:00:05.883Z,3.60
2023-05-25T06:01:08.011Z,4.10
2023-05-25T06:02:09.998Z,3.60
2023-05-25T06:03:12.213Z,4.18
2023-05-25T06:04:14.453Z,3.30
2023-05-25T06:05:17.064Z,2.51
2023-05-25T06:06:20.326Z,3.68
2023-05-25T06:07:22.224Z,5.52
2023-05-25T06:08:24.145Z,3.65
2023-05-25T06:09:26.115Z,2.92
2023-05-25T06:10:28.199Z,4.11
2023-05-25T06:11:30.100Z,3.98
2023-05-25T06:12:32.123Z,3.00
2023-05-25T06:13:34.134Z,3.31
2023-05-25T06:14:36.121Z,6.75
2023-05-25T06:15:38.895Z,6.94
2023-05-25T06:16:41.151Z,5.06
2023-05-25T06:17:43.350Z,6.23
2023-05-25T06:18:45.470Z,3.45
2023-05-25T06:19:47.568Z,3.83
2023-05-25T06:20:50.018Z,4.71
2023-05-25T06:21:52.087Z,6.31
2023-05-25T06:22:54.088Z,5.53
2023-05-25T06:23:56.194Z,4.47
2023-05-25T06:24:58.106Z,4.99
2023-05-25T06:26:06.194Z,6.47
2023-05-25T06:27:08.239Z,7.80
2023-05-25T06:28:10.930Z,4.20
2023-05-25T06:29:16.699Z,5.80
2023-05-25T06:30:18.370Z,7.24
2023-05-25T06:31:20.351Z,7.32
2023-05-25T06:32:22.464Z,3.34
2023-05-25T06:33:24.577Z,4.67
2023-05-25T06:34:26.458Z,3.83
2023-05-25T06:35:29.424Z,4.21
2023-05-25T06:36:32.389Z,5.17
2023-05-25T06:37:34.502Z,8.37
2023-05-25T06:38:36.909Z,7.97
2023-05-25T06:39:38.794Z,4.82
2023-05-25T06:40:40.980Z,5.75
2023-05-25T06:41:43.061Z,20.37
2023-05-25T06:42:45.373Z,6.41
2023-05-25T06:43:47.273Z,7.36
2023-05-25T06:44:49.311Z,4.03
2023-05-25T06:45:51.361Z,5.77
2023-05-25T06:46:53.408Z,4.86
2023-05-25T06:47:55.418Z,6.22
2023-05-25T06:48:58.972Z,7.85
2023-05-25T06:50:01.385Z,5.27
2023-05-25T06:51:03.609Z,3.83
2023-05-25T06:52:05.611Z,6.76
2023-05-25T06:53:07.637Z,5.15
2023-05-25T06:54:09.508Z,4.67
2023-05-25T06:55:11.648Z,11.41
2023-05-25T06:56:14.156Z,4.47
2023-05-25T06:57:16.050Z,11.68
2023-05-25T06:58:17.962Z,11.75
2023-05-25T06:59:19.857Z,26.72
2023-05-25T07:00:21.976Z,12.12
2023-05-25T07:01:24.037Z,7.80
2023-05-25T07:02:26.694Z,6.36
2023-05-25T07:03:28.786Z,6.15
2023-05-25T07:04:30.798Z,8.22
2023-05-25T07:05:32.776Z,7.22
2023-05-25T07:06:34.908Z,6.63
2023-05-25T07:07:36.867Z,6.91
2023-05-25T07:08:38.764Z,4.03
2023-05-25T07:09:40.692Z,4.91
2023-05-25T07:10:42.685Z,4.96
2023-05-25T07:11:44.586Z,5.19
2023-05-25T07:12:46.486Z,4.65
2023-05-25T07:13:48.593Z,6.05
2023-05-25T07:14:50.889Z,5.01
2023-05-25T07:15:53.030Z,6.43
2023-05-25T07:16:55.228Z,5.53
2023-05-25T07:17:57.410Z,6.20
2023-05-25T07:19:00.314Z,7.76
2023-05-25T07:20:04.405Z,6.48
2023-05-25T07:21:07.654Z,9.34
2023-05-25T07:22:09.725Z,6.22
2023-05-25T07:23:12.216Z,7.49
2023-05-25T07:24:14.238Z,4.91
2023-05-25T07:25:16.271Z,5.88
2023-05-25T07:26:18.432Z,7.05
2023-05-25T07:27:20.323Z,6.41
2023-05-25T07:28:22.337Z,7.00
2023-05-25T07:29:24.255Z,6.85
2023-05-25T07:30:26.741Z,8.34
2023-05-25T07:31:28.652Z,6.59
2023-05-25T07:32:31.087Z,7.53
2023-05-25T07:33:33.136Z,6.19
2023-05-25T07:34:35.333Z,6.91
2023-05-25T07:35:37.288Z,5.78
2023-05-25T07:36:39.285Z,7.32
2023-05-25T07:37:41.208Z,9.48
2023-05-25T07:38:43.101Z,5.53
2023-05-25T07:39:46.073Z,5.43
2023-05-25T07:40:48.188Z,6.63
2023-05-25T07:41:50.090Z,8.74
2023-05-25T07:42:52.598Z,6.79
2023-05-25T07:43:54.720Z,5.60
2023-05-25T07:44:56.726Z,5.99
2023-05-25T07:45:59.759Z,5.49
2023-05-25T07:47:01.925Z,5.89
2023-05-25T07:48:04.499Z,8.12
2023-05-25T07:49:06.930Z,7.73
2023-05-25T07:50:10.043Z,8.04
2023-05-25T07:51:11.952Z,6.31
2023-05-25T07:52:14.051Z,7.21
2023-05-25T07:53:16.252Z,5.61
2023-05-25T07:54:19.630Z,4.76
2023-05-25T07:55:22.268Z,8.07
2023-05-25T07:56:24.389Z,6.26
2023-05-25T07:57:26.689Z,6.35
2023-05-25T07:58:28.676Z,6.52
2023-05-25T07:59:30.584Z,6.48
2023-05-25T08:00:32.934Z,5.36
2023-05-25T08:01:34.931Z,4.62
2023-05-25T08:02:36.908Z,5.15
2023-05-25T08:03:48.881Z,4.59
2023-05-25T08:04:43.012Z,4.99
2023-05-25T08:05:45.559Z,4.45
2023-05-25T08:06:50.293Z,4.76
2023-05-25T08:07:52.379Z,5.82
2023-05-25T08:08:54.300Z,8.71
2023-05-25T08:09:56.265Z,5.15
2023-05-25T08:10:59.536Z,7.90
2023-05-25T08:12:24.149Z,9.19
2023-05-25T08:13:05.275Z,5.51
2023-05-25T08:14:07.308Z,5.75
2023-05-25T08:15:09.445Z,4.80
2023-05-25T08:16:11.989Z,4.37
2023-05-25T08:17:13.967Z,5.71
2023-05-25T08:18:15.986Z,7.69
2023-05-25T08:19:17.887Z,6.59
2023-05-25T08:20:20.037Z,6.79
2023-05-25T08:21:22.439Z,6.14
2023-05-25T08:22:24.342Z,7.59
2023-05-25T08:23:26.493Z,6.33
2023-05-25T08:24:28.367Z,4.63
2023-05-25T08:25:30.286Z,4.71
2023-05-25T08:26:41.702Z,9.42
2023-05-25T08:27:36.795Z,19.46
2023-05-25T08:28:38.921Z,14.86
2023-05-25T08:29:40.942Z,9.72
2023-05-25T08:30:44.455Z,6.99
2023-05-25T08:31:46.469Z,11.37
2023-05-25T08:32:48.561Z,4.86
2023-05-25T08:33:50.564Z,4.87
2023-05-25T08:34:52.461Z,7.68
2023-05-25T08:35:54.409Z,10.41
2023-05-25T08:36:57.135Z,10.67
2023-05-25T08:37:59.061Z,9.43
2023-05-25T08:39:02.261Z,10.23
2023-05-25T08:40:07.324Z,8.32
2023-05-25T08:41:11.440Z,10.64
2023-05-25T08:42:13.456Z,11.43
2023-05-25T08:43:15.362Z,12.75
2023-05-25T08:44:17.352Z,5.85
2023-05-25T08:45:33.506Z,7.31
2023-05-25T08:46:30.736Z,5.90
2023-05-25T08:47:35.459Z,5.83
2023-05-25T08:48:42.483Z,6.31
2023-05-25T08:49:44.803Z,6.78
2023-05-25T08:50:48.539Z,7.41
2023-05-25T08:51:52.820Z,5.53
2023-05-25T08:52:56.888Z,5.16
2023-05-25T08:54:02.603Z,5.75
2023-05-25T08:55:07.821Z,6.12
2023-05-25T08:56:22.805Z,4.63
2023-05-25T08:57:43.835Z,6.09
2023-05-25T08:58:52.180Z,5.63
2023-05-25T09:00:04.228Z,5.13
2023-05-25T09:01:07.978Z,7.16
2023-05-25T09:02:30.500Z,6.76
2023-05-25T09:03:34.263Z,8.14
2023-05-25T09:04:37.395Z,5.33
2023-05-25T09:05:39.539Z,4.66
2023-05-25T09:06:42.054Z,3.87
2023-05-25T09:07:45.874Z,5.33
2023-05-25T09:08:48.486Z,4.38
2023-05-25T09:09:51.387Z,6.19
2023-05-25T09:10:55.786Z,5.94
2023-05-25T09:11:58.741Z,6.78
2023-05-25T09:13:12.758Z,5.20
2023-05-25T09:14:07.571Z,4.90
2023-05-25T09:15:11.377Z,3.89
2023-05-25T09:16:15.778Z,3.79
2023-05-25T09:17:17.887Z,3.91
2023-05-25T09:18:20.164Z,4.15
2023-05-25T09:19:22.225Z,3.52
2023-05-25T09:20:25.256Z,3.29
2023-05-25T09:21:27.412Z,5.37
2023-05-25T09:22:29.360Z,6.22
2023-05-25T09:23:32.015Z,5.87
2023-05-25T09:24:33.931Z,8.37
2023-05-25T09:25:37.946Z,5.87
2023-05-25T09:26:41.018Z,6.66
2023-05-25T09:27:46.077Z,10.37
2023-05-25T09:28:48.028Z,5.30
2023-05-25T09:29:53.249Z,9.98
2023-05-25T09:30:56.022Z,4.66
2023-05-25T09:31:59.814Z,3.82
2023-05-25T09:33:13.375Z,5.86
2023-05-25T09:34:15.932Z,4.44
2023-05-25T09:35:18.045Z,13.77
2023-05-25T09:36:21.233Z,10.01
2023-05-25T09:37:23.987Z,5.58
2023-05-25T09:38:26.238Z,4.06
2023-05-25T09:39:29.690Z,7.03
2023-05-25T09:40:33.660Z,8.38
2023-05-25T09:41:36.617Z,7.61
2023-05-25T09:42:39.048Z,5.87
2023-05-25T09:43:44.943Z,8.62
2023-05-25T09:44:45.020Z,15.91
2023-05-25T09:45:47.214Z,9.49
2023-05-25T09:46:50.086Z,7.77
2023-05-25T09:49:09.538Z,9.22
2023-05-25T09:50:11.776Z,5.37
2023-05-25T09:51:13.698Z,6.12
2023-05-25T09:52:15.595Z,7.87
2023-05-25T09:53:17.982Z,4.33
2023-05-25T09:54:21.780Z,3.95
2023-05-25T09:55:23.704Z,6.52
2023-05-25T09:56:27.106Z,6.51
2023-05-25T09:57:29.152Z,2.51
2023-05-25T09:58:31.046Z,2.74
2023-05-25T09:59:33.036Z,4.13
2023-05-25T10:00:35.126Z,3.25
2023-05-25T10:01:37.366Z,6.29
2023-05-25T10:02:40.687Z,5.85
2023-05-25T10:03:59.841Z,5.23
2023-05-25T10:04:50.323Z,4.79
2023-05-25T10:05:53.756Z,4.35
2023-05-25T10:06:56.977Z,5.14
2023-05-25T10:08:01.759Z,4.21
2023-05-25T10:09:07.519Z,6.09
2023-05-25T10:10:12.932Z,4.47
2023-05-25T10:11:15.963Z,4.46
2023-05-25T10:12:19.616Z,4.36
2023-05-25T10:13:22.176Z,3.89
2023-05-25T10:14:29.707Z,3.95
2023-05-25T10:15:32.744Z,3.67
2023-05-25T10:16:38.041Z,4.94
2023-05-25T10:17:46.723Z,4.49
2023-05-25T10:19:10.859Z,3.79
2023-05-25T10:20:14.296Z,3.29
2023-05-25T10:21:18.633Z,3.37
2023-05-25T10:22:41.291Z,4.28
2023-05-25T10:23:53.301Z,3.69
2023-05-25T10:25:08.282Z,5.11
2023-05-25T10:26:17.146Z,4.51
2023-05-25T10:27:27.556Z,4.25
2023-05-25T10:28:29.349Z,4.89
2023-05-25T10:29:34.873Z,4.14
2023-05-25T10:30:38.795Z,2.93
2023-05-25T10:31:41.674Z,3.36
2023-05-25T10:32:45.915Z,5.77
2023-05-25T10:33:52.033Z,3.77
2023-05-25T10:34:52.956Z,5.65
2023-05-25T10:36:09.261Z,7.05
2023-05-25T10:37:02.289Z,5.54
2023-05-25T10:38:05.112Z,3.86
2023-05-25T10:39:09.236Z,3.25
2023-05-25T10:40:12.838Z,2.66
2023-05-25T10:41:15.448Z,4.12
2023-05-25T10:42:19.153Z,5.18
2023-05-25T10:43:23.200Z,3.05
2023-05-25T10:44:25.425Z,3.69
2023-05-25T10:45:28.204Z,5.59
2023-05-25T10:46:30.254Z,4.85
2023-05-25T10:47:33.944Z,3.50
2023-05-25T10:48:41.453Z,3.55
2023-05-25T10:49:58.207Z,6.77
2023-05-25T10:51:00.506Z,3.60
2023-05-25T10:52:02.679Z,2.65
2023-05-25T10:53:10.433Z,4.21
2023-05-25T10:54:13.252Z,3.60
2023-05-25T10:55:15.165Z,4.34
2023-05-25T10:56:17.388Z,6.21
2023-05-25T10:57:22.045Z,3.41
2023-05-25T10:58:26.786Z,4.28
2023-05-25T10:59:29.759Z,8.03
2023-05-25T11:00:32.033Z,3.51
2023-05-25T11:01:37.997Z,5.85
2023-05-25T11:02:49.844Z,3.96
2023-05-25T11:04:10.900Z,4.36
2023-05-25T11:05:29.986Z,6.26
2023-05-25T11:06:39.959Z,5.54
2023-05-25T11:09:03.472Z,2.99
2023-05-25T11:10:07.752Z,4.87
2023-05-25T11:11:09.736Z,6.69
2023-05-25T11:12:19.913Z,6.17
2023-05-25T11:13:38.048Z,5.40
2023-05-25T11:14:40.700Z,5.98
2023-05-25T11:15:42.969Z,6.42
2023-05-25T11:17:05.776Z,4.13
2023-05-25T11:18:12.353Z,4.84
2023-05-25T11:19:14.930Z,5.09
2023-05-25T11:20:26.215Z,3.74
2023-05-25T11:22:33.718Z,3.62
2023-05-25T11:23:56.365Z,5.03
2023-05-25T11:25:00.065Z,4.85
2023-05-25T11:26:05.179Z,4.22
2023-05-25T11:27:07.215Z,6.36
2023-05-25T11:28:09.606Z,5.65
2023-05-25T11:29:14.876Z,6.56
2023-05-25T11:30:18.977Z,6.47
2023-05-25T11:31:29.721Z,4.61
2023-05-25T11:32:31.980Z,3.26
2023-05-25T11:33:33.948Z,6.15
2023-05-25T11:34:36.408Z,4.09
2023-05-25T11:35:38.418Z,4.09
2023-05-25T11:36:41.691Z,4.51
2023-05-25T11:37:47.563Z,4.84
2023-05-25T11:39:02.574Z,4.86
2023-05-25T11:39:54.384Z,5.05
2023-05-25T11:40:56.596Z,5.58
2023-05-25T11:42:03.997Z,3.92
2023-05-25T11:43:08.208Z,3.87
2023-05-25T11:44:10.321Z,4.54
2023-05-25T11:45:14.035Z,4.13
2023-05-25T11:46:18.022Z,3.41
2023-05-25T11:47:22.066Z,6.09
2023-05-25T11:48:24.314Z,6.11
2023-05-25T11:49:27.052Z,4.95
2023-05-25T11:50:29.312Z,6.99
2023-05-25T11:51:31.303Z,4.63
2023-05-25T11:52:34.533Z,4.92
2023-05-25T11:53:41.982Z,5.01
2023-05-25T11:54:45.346Z,5.51
2023-05-25T11:55:53.678Z,5.53
2023-05-25T11:56:55.908Z,4.99
2023-05-25T11:57:59.184Z,5.28
2023-05-25T11:59:01.198Z,4.34
2023-05-25T12:00:04.218Z,7.43
2023-05-25T12:01:16.598Z,4.44
2023-05-25T12:02:19.702Z,4.46
2023-05-25T12:03:31.632Z,5.83
2023-05-25T12:04:33.943Z,6.41
2023-05-25T12:05:39.654Z,6.22
2023-05-25T12:06:41.796Z,5.66
2023-05-25T12:07:44.604Z,6.70
2023-05-25T12:08:46.700Z,8.52
2023-05-25T12:09:49.216Z,5.50
2023-05-25T12:10:51.503Z,6.82
2023-05-25T12:11:53.773Z,5.19
2023-05-25T12:12:55.805Z,5.12
2023-05-25T12:13:58.745Z,6.97
2023-05-25T12:15:00.850Z,5.90
2023-05-25T12:16:03.102Z,5.11
2023-05-25T12:17:06.589Z,4.79
2023-05-25T12:18:08.719Z,5.98
2023-05-25T12:19:11.480Z,5.01
2023-05-25T12:20:16.722Z,5.25
2023-05-25T12:21:20.926Z,6.42
2023-05-25T12:22:23.159Z,6.65
2023-05-25T12:23:25.297Z,5.97
2023-05-25T12:24:28.130Z,4.17
2023-05-25T12:25:42.358Z,5.70
2023-05-25T12:26:34.029Z,5.26
2023-05-25T12:27:36.748Z,6.81
2023-05-25T12:28:39.590Z,7.35
2023-05-25T12:29:46.320Z,4.39
2023-05-25T12:30:48.401Z,4.83
2023-05-25T12:31:50.713Z,4.21
2023-05-25T12:32:55.324Z,5.74
2023-05-25T12:34:18.033Z,8.82
2023-05-25T12:35:20.881Z,4.67
2023-05-25T12:36:39.239Z,5.19
2023-05-25T12:37:41.529Z,4.03
2023-05-25T12:38:47.188Z,7.39
2023-05-25T12:39:49.116Z,4.61
2023-05-25T12:41:06.960Z,5.01
2023-05-25T12:42:13.511Z,5.35
2023-05-25T12:43:15.858Z,5.91
2023-05-25T12:44:23.928Z,6.34
2023-05-25T12:45:26.020Z,4.25
2023-05-25T12:46:28.144Z,5.01
2023-05-25T12:47:30.385Z,4.49
2023-05-25T12:48:33.100Z,4.09
2023-05-25T12:49:34.997Z,3.44
2023-05-25T12:50:39.046Z,5.41
2023-05-25T12:51:41.389Z,4.52
2023-05-25T12:52:45.588Z,4.37
2023-05-25T12:53:51.340Z,6.51
2023-05-25T12:54:53.658Z,4.10
2023-05-25T12:56:03.183Z,4.89
2023-05-25T12:57:06.212Z,10.96
2023-05-25T12:58:11.953Z,4.84
2023-05-25T12:59:14.571Z,4.84
2023-05-25T13:00:16.731Z,5.19
2023-05-25T13:01:18.790Z,4.25
2023-05-25T13:02:21.493Z,5.19
2023-05-25T13:03:23.505Z,4.90
2023-05-25T13:04:26.346Z,5.31
2023-05-25T13:05:31.277Z,5.37
2023-05-25T13:06:33.545Z,5.31
2023-05-25T13:07:35.454Z,6.08
2023-05-25T13:08:37.342Z,5.73
2023-05-25T13:09:39.286Z,4.43
2023-05-25T13:10:41.947Z,4.92
2023-05-25T13:11:44.086Z,6.98
2023-05-25T13:12:46.989Z,5.38
2023-05-25T13:13:48.971Z,3.30
2023-05-25T13:14:51.255Z,5.25
2023-05-25T13:15:53.212Z,6.16
2023-05-25T13:16:55.937Z,4.31
2023-05-25T13:17:58.481Z,3.89
2023-05-25T13:19:01.748Z,5.31
2023-05-25T13:20:04.359Z,4.89
2023-05-25T13:21:06.366Z,4.77
2023-05-25T13:22:08.320Z,5.01
2023-05-25T13:23:10.253Z,5.43
2023-05-25T13:24:12.172Z,6.24
2023-05-25T13:25:14.049Z,3.61
2023-05-25T13:26:18.148Z,5.85
2023-05-25T13:27:21.071Z,3.87
2023-05-25T13:28:23.017Z,7.77
2023-05-25T13:29:25.083Z,5.03
2023-05-25T13:30:27.074Z,3.35
2023-05-25T13:31:28.998Z,4.49
2023-05-25T13:32:31.110Z,4.23
2023-05-25T13:33:33.207Z,4.50
2023-05-25T13:34:35.212Z,5.86
2023-05-25T13:35:37.348Z,5.22
2023-05-25T13:36:39.804Z,2.58
2023-05-25T13:37:41.796Z,4.24
2023-05-25T13:38:44.708Z,3.89
2023-05-25T13:39:46.691Z,4.31
2023-05-25T13:40:48.690Z,3.12
2023-05-25T13:41:50.617Z,2.71
2023-05-25T13:42:52.665Z,4.40
2023-05-25T13:43:54.798Z,4.51
2023-05-25T13:44:56.688Z,3.83
2023-05-25T13:45:58.626Z,3.37
2023-05-25T13:47:00.773Z,3.25
2023-05-25T13:48:03.364Z,5.63
2023-05-25T13:49:05.711Z,6.86
2023-05-25T13:50:08.549Z,3.42
2023-05-25T13:51:10.557Z,3.63
2023-05-25T13:52:12.645Z,3.37
2023-05-25T13:53:14.680Z,5.59
2023-05-25T13:54:16.670Z,3.69
2023-05-25T13:55:18.766Z,3.59
2023-05-25T13:56:21.106Z,3.20
2023-05-25T13:57:23.082Z,3.25
2023-05-25T13:58:24.992Z,4.06
2023-05-25T13:59:27.837Z,4.72
2023-05-25T14:00:29.849Z,3.80
2023-05-25T14:01:31.877Z,6.47
2023-05-25T14:02:34.220Z,3.49
2023-05-25T14:03:37.259Z,4.61
2023-05-25T14:04:39.481Z,4.76